createdAt,value
2022-11-24T00:00:25.202Z,57.75
2022-11-24T00:02:51.793Z,58.18
2022-11-24T00:05:18.275Z,58.46
2022-11-24T00:07:44.706Z,58.54
2022-11-24T00:10:11.209Z,58.02
2022-11-24T00:12:37.594Z,58.33
2022-11-24T00:15:03.985Z,57.52
2022-11-24T00:17:30.354Z,57.90
2022-11-24T00:19:56.714Z,57.34
2022-11-24T00:22:23.095Z,57.69
2022-11-24T00:24:49.498Z,56.44
2022-11-24T00:27:15.861Z,57.02
2022-11-24T00:29:42.270Z,56.87
2022-11-24T00:32:08.647Z,57.50
2022-11-24T00:34:35.309Z,57.07
2022-11-24T00:37:01.963Z,57.89
2022-11-24T00:39:28.349Z,57.18
2022-11-24T00:41:54.716Z,56.76
2022-11-24T00:44:21.100Z,56.93
2022-11-24T00:46:47.598Z,57.50
2022-11-24T00:49:14.077Z,57.98
2022-11-24T00:51:40.466Z,57.46
2022-11-24T00:54:06.826Z,57.61
2022-11-24T00:56:33.193Z,57.86
2022-11-24T00:58:59.590Z,58.10
2022-11-24T01:01:26.113Z,58.68
2022-11-24T01:03:52.549Z,58.62
2022-11-24T01:06:18.919Z,58.67
2022-11-24T01:08:45.301Z,57.73
2022-11-24T01:11:11.677Z,58.29
2022-11-24T01:13:38.064Z,58.67
2022-11-24T01:16:04.558Z,57.71
2022-11-24T01:18:30.996Z,58.11
2022-11-24T01:20:57.382Z,57.89
2022-11-24T01:23:23.757Z,57.99
2022-11-24T01:25:50.148Z,57.65
2022-11-24T01:28:16.514Z,58.49
2022-11-24T01:30:42.948Z,58.23
2022-11-24T01:33:09.387Z,57.40
2022-11-24T01:35:35.748Z,58.02
2022-11-24T01:38:02.116Z,57.95
2022-11-24T01:40:28.496Z,58.48
2022-11-24T01:42:54.868Z,58.14
2022-11-24T01:45:21.256Z,57.86
2022-11-24T01:47:47.661Z,58.24
2022-11-24T01:50:14.189Z,57.60
2022-11-24T01:52:40.570Z,58.50
2022-11-24T01:55:06.948Z,57.83
2022-11-24T01:57:33.319Z,57.79
2022-11-24T01:59:59.704Z,57.05
2022-11-24T02:02:26.102Z,57.17
2022-11-24T02:04:52.530Z,57.22
2022-11-24T02:07:18.932Z,58.04
2022-11-24T02:09:45.341Z,57.80
2022-11-24T02:12:11.695Z,57.02
2022-11-24T02:14:38.095Z,57.33
2022-11-24T02:17:04.479Z,57.28
2022-11-24T02:19:30.862Z,57.03
2022-11-24T02:21:57.238Z,57.17
2022-11-24T02:24:23.610Z,56.73
2022-11-24T02:26:50.062Z,57.13
2022-11-24T02:29:16.424Z,56.96
2022-11-24T02:31:42.794Z,56.08
2022-11-24T02:34:09.175Z,55.97
2022-11-24T02:36:35.554Z,55.74
2022-11-24T02:39:01.932Z,55.54
2022-11-24T02:41:28.306Z,55.64
2022-11-24T02:43:54.681Z,56.00
2022-11-24T02:46:21.146Z,55.62
2022-11-24T02:48:47.546Z,55.67
2022-11-24T02:51:13.954Z,55.74
2022-11-24T02:53:40.314Z,55.55
2022-11-24T02:56:06.689Z,55.06
2022-11-24T02:58:33.071Z,55.00
2022-11-24T03:00:59.430Z,55.69
2022-11-24T03:03:25.790Z,55.47
2022-11-24T03:05:52.178Z,55.54
2022-11-24T03:08:18.538Z,55.92
2022-11-24T03:10:44.940Z,57.43
2022-11-24T03:13:11.323Z,56.51
2022-11-24T03:15:37.782Z,56.42
2022-11-24T03:18:04.195Z,55.96
2022-11-24T03:20:30.564Z,56.53
2022-11-24T03:22:56.936Z,56.75
2022-11-24T03:25:23.303Z,56.24
2022-11-24T03:27:49.673Z,55.86
2022-11-24T03:30:16.052Z,56.27
2022-11-24T03:32:42.427Z,55.92
2022-11-24T03:35:08.791Z,55.53
2022-11-24T03:37:35.166Z,55.46
2022-11-24T03:40:01.532Z,55.29
2022-11-24T03:42:27.904Z,55.69
2022-11-24T03:44:54.278Z,55.12
2022-11-24T03:47:20.663Z,56.19
2022-11-24T03:49:47.051Z,55.14
2022-11-24T03:52:13.434Z,55.95
2022-11-24T03:54:39.823Z,55.47
2022-11-24T03:57:06.224Z,55.76
2022-11-24T03:59:32.608Z,55.69
2022-11-24T04:01:59.012Z,55.04
2022-11-24T04:04:25.455Z,56.33
2022-11-24T04:06:51.838Z,55.64
2022-11-24T04:09:18.211Z,55.82
2022-11-24T04:11:44.576Z,55.77
2022-11-24T04:14:13.742Z,54.93
2022-11-24T04:16:40.364Z,55.86
2022-11-24T04:19:06.739Z,55.63
2022-11-24T04:21:33.104Z,55.95
2022-11-24T04:23:59.499Z,55.91
2022-11-24T04:26:25.872Z,55.12
2022-11-24T04:28:52.254Z,55.59
2022-11-24T04:31:18.727Z,55.40
2022-11-24T04:33:45.121Z,55.48
2022-11-24T04:36:11.493Z,56.49
2022-11-24T04:39:23.589Z,56.66
2022-11-24T04:41:24.233Z,57.08
2022-11-24T04:43:50.614Z,56.26
2022-11-24T04:46:17.045Z,57.56
2022-11-24T04:48:43.486Z,57.56
2022-11-24T04:51:09.866Z,57.59
2022-11-24T04:53:36.266Z,57.50
2022-11-24T04:56:02.639Z,56.78
2022-11-24T04:58:29.073Z,57.70
2022-11-24T05:00:55.454Z,56.68
2022-11-24T05:03:21.842Z,57.56
2022-11-24T05:05:48.218Z,56.95
2022-11-24T05:08:14.581Z,56.91
2022-11-24T05:10:40.961Z,57.47
2022-11-24T05:13:07.298Z,57.77
2022-11-24T05:15:33.654Z,57.40
2022-11-24T05:17:59.990Z,57.35
2022-11-24T05:20:26.327Z,56.08
2022-11-24T05:22:52.709Z,56.91
2022-11-24T05:25:19.058Z,57.02
2022-11-24T05:27:45.399Z,57.31
2022-11-24T05:30:11.736Z,57.09
2022-11-24T05:32:38.128Z,57.56
2022-11-24T05:35:04.538Z,57.30
2022-11-24T05:37:30.875Z,57.28
2022-11-24T05:39:57.206Z,57.29
2022-11-24T05:42:23.568Z,57.33
2022-11-24T05:44:49.945Z,57.75
2022-11-24T05:47:16.327Z,57.32
2022-11-24T05:49:42.670Z,56.65
2022-11-24T05:52:08.998Z,57.29
2022-11-24T05:54:35.597Z,56.69
2022-11-24T05:57:02.194Z,56.05
2022-11-24T05:59:28.541Z,55.59
2022-11-24T06:01:55.103Z,55.81
2022-11-24T06:04:21.539Z,55.20
2022-11-24T06:06:47.877Z,55.13
2022-11-24T06:09:14.212Z,55.88
2022-11-24T06:11:40.592Z,55.43
2022-11-24T06:14:10.919Z,55.89
2022-11-24T06:16:37.856Z,55.96
2022-11-24T06:19:04.257Z,56.39
2022-11-24T06:21:30.624Z,57.06
2022-11-24T06:23:57.003Z,56.15
2022-11-24T06:26:23.337Z,56.13
2022-11-24T06:28:49.653Z,55.84
2022-11-24T06:31:16.009Z,56.37
2022-11-24T06:33:42.434Z,56.35
2022-11-24T06:36:08.829Z,55.58
2022-11-24T06:38:35.216Z,56.56
2022-11-24T06:41:01.554Z,56.56
2022-11-24T06:43:27.874Z,56.04
2022-11-24T06:45:54.307Z,55.89
2022-11-24T06:48:20.688Z,55.78
2022-11-24T06:50:47.066Z,56.32
2022-11-24T06:53:13.407Z,56.03
2022-11-24T06:55:39.765Z,54.94
2022-11-24T06:58:06.097Z,54.68
2022-11-24T07:00:32.427Z,54.80
2022-11-24T07:02:58.822Z,55.26
2022-11-24T07:05:25.247Z,55.95
2022-11-24T07:07:51.585Z,55.18
2022-11-24T07:10:17.999Z,55.57
2022-11-24T07:12:44.396Z,55.15
2022-11-24T07:15:10.789Z,55.33
2022-11-24T07:17:37.127Z,55.15
2022-11-24T07:20:03.543Z,55.87
2022-11-24T07:22:29.881Z,54.56
2022-11-24T07:24:56.210Z,55.13
2022-11-24T07:27:22.597Z,54.23
2022-11-24T07:29:48.941Z,54.61
2022-11-24T07:32:15.314Z,54.20
2022-11-24T07:34:41.662Z,55.00
2022-11-24T07:37:08.041Z,54.13
2022-11-24T07:39:34.381Z,54.31
2022-11-24T07:42:00.703Z,55.13
2022-11-24T07:44:27.081Z,54.44
2022-11-24T07:46:53.471Z,54.79
2022-11-24T07:49:19.809Z,54.56
2022-11-24T07:51:46.139Z,53.29
2022-11-24T07:54:12.499Z,54.27
2022-11-24T07:56:38.839Z,53.66
2022-11-24T07:59:05.211Z,53.47
2022-11-24T08:01:31.736Z,53.38
2022-11-24T08:03:58.180Z,53.54
2022-11-24T08:06:28.517Z,53.35
2022-11-24T08:08:56.786Z,53.46
2022-11-24T08:11:23.153Z,53.56
2022-11-24T08:13:49.531Z,53.27
2022-11-24T08:16:15.940Z,53.40
2022-11-24T08:18:42.367Z,53.47
2022-11-24T08:21:08.697Z,53.07
2022-11-24T08:23:35.030Z,53.24
2022-11-24T08:26:01.362Z,53.67
2022-11-24T08:28:27.694Z,52.46
2022-11-24T08:30:54.065Z,52.29
2022-11-24T08:33:20.441Z,52.73
2022-11-24T08:35:46.789Z,52.43
2022-11-24T08:38:13.114Z,52.51
2022-11-24T08:40:39.441Z,52.32
2022-11-24T08:43:05.813Z,52.70
2022-11-24T08:45:35.456Z,52.50
2022-11-24T08:48:06.169Z,52.56
2022-11-24T08:50:32.520Z,52.31
2022-11-24T08:52:58.848Z,53.10
2022-11-24T08:55:25.185Z,53.39
2022-11-24T08:57:51.520Z,53.26
2022-11-24T09:00:17.855Z,52.87
2022-11-24T09:02:44.234Z,53.69
2022-11-24T09:05:35.923Z,52.92
2022-11-24T09:07:56.944Z,52.42
2022-11-24T09:10:23.355Z,52.19
2022-11-24T09:12:49.698Z,51.98
2022-11-24T09:15:16.035Z,52.52
2022-11-24T09:17:42.363Z,51.27
2022-11-24T09:20:08.730Z,51.45
2022-11-24T09:22:35.108Z,50.91
2022-11-24T09:25:01.490Z,50.63
2022-11-24T09:27:27.869Z,49.73
2022-11-24T09:29:54.206Z,50.58
2022-11-24T09:32:20.563Z,50.82
2022-11-24T09:34:46.889Z,50.16
2022-11-24T09:37:13.214Z,50.58
2022-11-24T09:39:39.613Z,50.20
2022-11-24T09:42:06.014Z,50.53
2022-11-24T09:44:32.376Z,49.44
2022-11-24T09:46:58.775Z,49.23
2022-11-24T09:49:25.158Z,49.75
2022-11-24T09:51:51.537Z,50.41
2022-11-24T09:54:17.887Z,49.71
2022-11-24T09:56:44.272Z,49.87
2022-11-24T09:59:10.649Z,49.92
2022-11-24T10:01:37.129Z,50.30
2022-11-24T10:04:06.368Z,49.21
2022-11-24T10:06:33.239Z,48.98
2022-11-24T10:08:59.620Z,48.89
2022-11-24T10:11:25.958Z,49.42
2022-11-24T10:13:52.335Z,49.75
2022-11-24T10:16:18.738Z,48.93
2022-11-24T10:18:45.168Z,49.01
2022-11-24T10:21:11.558Z,49.70
2022-11-24T10:23:39.939Z,49.27
2022-11-24T10:26:06.512Z,48.54
2022-11-24T10:28:33.114Z,48.91
2022-11-24T10:30:59.557Z,48.98
2022-11-24T10:33:30.688Z,49.15
2022-11-24T10:35:57.422Z,49.17
2022-11-24T10:38:23.748Z,48.47
2022-11-24T10:40:58.280Z,48.48
2022-11-24T10:43:24.861Z,50.39
2022-11-24T10:45:51.294Z,49.50
2022-11-24T10:48:17.717Z,49.63
2022-11-24T10:50:44.134Z,50.39
2022-11-24T10:53:10.486Z,50.87
2022-11-24T10:55:37.957Z,50.98
2022-11-24T10:58:04.421Z,51.08
2022-11-24T11:00:30.817Z,51.98
2022-11-24T11:02:57.245Z,51.67
2022-11-24T11:05:23.708Z,50.92
2022-11-24T11:07:50.137Z,50.42
2022-11-24T11:10:16.651Z,50.16
2022-11-24T11:12:44.719Z,49.76
2022-11-24T11:15:11.586Z,49.60
2022-11-24T11:17:37.951Z,49.89
2022-11-24T11:20:04.612Z,49.55
2022-11-24T11:22:31.233Z,50.18
2022-11-24T11:24:57.590Z,49.76
2022-11-24T11:27:23.919Z,49.83
2022-11-24T11:35:22.937Z,47.49
2022-11-24T11:37:49.283Z,48.32
2022-11-24T11:40:15.669Z,48.08
2022-11-24T11:45:28.439Z,46.84
2022-11-24T11:47:54.795Z,47.04
2022-11-24T11:50:21.154Z,46.57
2022-11-24T11:52:47.549Z,47.31
2022-11-24T11:55:13.948Z,47.42
2022-11-24T11:57:40.307Z,47.45
2022-11-24T12:00:06.633Z,46.72
2022-11-24T12:02:33.044Z,47.03
2022-11-24T12:04:59.444Z,46.33
2022-11-24T12:07:25.850Z,47.77
2022-11-24T12:09:52.255Z,46.14
2022-11-24T12:12:18.591Z,46.21
2022-11-24T12:14:44.994Z,45.79
2022-11-24T12:17:11.340Z,45.32
2022-11-24T12:19:37.677Z,45.21
2022-11-24T12:22:04.002Z,45.36
2022-11-24T12:24:30.416Z,45.87
2022-11-24T12:26:56.851Z,47.62
2022-11-24T12:29:23.186Z,47.53
2022-11-24T12:31:49.561Z,47.40
2022-11-24T12:34:15.955Z,46.83
2022-11-24T12:36:42.355Z,46.49
2022-11-24T12:39:08.692Z,45.18
2022-11-24T12:41:42.834Z,45.39
2022-11-24T12:44:09.453Z,45.61
2022-11-24T12:46:35.856Z,46.60
2022-11-24T12:49:02.249Z,46.07
2022-11-24T12:51:28.608Z,46.53
2022-11-24T12:53:54.985Z,46.08
2022-11-24T12:56:21.412Z,45.67
2022-11-24T12:58:47.780Z,46.05
2022-11-24T13:01:16.808Z,45.20
2022-11-24T13:03:43.468Z,46.49
2022-11-24T13:06:09.848Z,44.73
2022-11-24T13:08:36.222Z,44.38
2022-11-24T13:11:02.563Z,44.93
2022-11-24T13:13:28.989Z,45.21
2022-11-24T13:18:41.667Z,44.49
2022-11-24T13:21:08.019Z,45.42
2022-11-24T13:23:34.359Z,45.71
2022-11-24T13:26:00.715Z,45.47
2022-11-24T13:28:53.833Z,45.27
2022-11-24T13:31:13.457Z,45.59
2022-11-24T13:33:39.855Z,45.96
2022-11-24T13:36:06.243Z,46.64
2022-11-24T13:38:35.293Z,46.14
2022-11-24T13:41:21.298Z,46.15
2022-11-24T13:43:47.979Z,47.27
2022-11-24T13:46:14.334Z,46.61
2022-11-24T13:48:40.694Z,46.62
2022-11-24T13:51:07.079Z,46.48
2022-11-24T13:53:33.467Z,47.05
2022-11-24T13:55:59.800Z,46.58
2022-11-24T13:58:26.163Z,46.93
2022-11-24T14:00:56.949Z,49.60
2022-11-24T14:03:24.719Z,48.48
2022-11-24T14:05:51.160Z,49.40
2022-11-24T14:08:17.555Z,49.03
2022-11-24T14:10:44.041Z,49.71
2022-11-24T14:15:36.812Z,49.34
2022-11-24T14:18:03.229Z,49.09
2022-11-24T14:20:29.567Z,49.90
2022-11-24T14:22:55.902Z,50.51
2022-11-24T14:25:22.275Z,51.38
2022-11-24T14:27:48.661Z,51.24
2022-11-24T14:30:14.987Z,50.74
2022-11-24T14:32:41.322Z,51.00
2022-11-24T14:35:07.679Z,50.71
2022-11-24T14:37:34.034Z,51.14
2022-11-24T14:40:00.362Z,51.47
2022-11-24T14:42:26.734Z,50.23
2022-11-24T14:44:53.069Z,50.63
2022-11-24T14:47:19.442Z,50.37
2022-11-24T14:49:45.796Z,50.07
2022-11-24T14:52:12.204Z,50.31
2022-11-24T14:54:38.598Z,49.56
2022-11-24T14:57:04.929Z,50.75
2022-11-24T14:59:31.308Z,50.83
2022-11-24T15:01:57.689Z,51.73
2022-11-24T15:05:01.647Z,52.90
2022-11-24T15:07:10.479Z,53.12
2022-11-24T15:09:36.916Z,53.52
2022-11-24T15:12:03.273Z,53.50
2022-11-24T15:14:29.666Z,54.13
2022-11-24T15:16:56.049Z,54.32
2022-11-24T15:19:22.430Z,54.79
2022-11-24T15:21:48.762Z,53.43
2022-11-24T15:24:15.155Z,54.31
2022-11-24T15:26:42.296Z,54.07
2022-11-24T15:29:08.850Z,52.64
2022-11-24T15:31:35.266Z,51.53
2022-11-24T15:34:01.703Z,51.28
2022-11-24T15:36:28.042Z,52.24
2022-11-24T15:38:54.406Z,53.83
2022-11-24T15:41:20.790Z,52.81
2022-11-24T15:43:47.183Z,54.17
2022-11-24T15:46:13.532Z,54.19
2022-11-24T15:48:39.962Z,54.86
2022-11-24T15:51:06.354Z,55.45
2022-11-24T15:53:32.742Z,53.69
2022-11-24T15:55:59.132Z,54.47
2022-11-24T15:58:25.517Z,54.30
2022-11-24T16:00:52.041Z,55.27
2022-11-24T16:03:45.723Z,55.20
2022-11-24T16:06:04.806Z,54.92
2022-11-24T16:08:31.185Z,56.09
2022-11-24T16:10:57.556Z,55.80
2022-11-24T16:13:24.054Z,56.09
2022-11-24T16:15:50.585Z,55.86
2022-11-24T16:18:16.941Z,55.59
2022-11-24T16:20:43.309Z,55.26
2022-11-24T16:23:09.698Z,54.19
2022-11-24T16:25:36.091Z,54.49
2022-11-24T16:28:02.482Z,53.64
2022-11-24T16:30:28.853Z,55.64
2022-11-24T16:32:55.221Z,55.80
2022-11-24T16:35:21.585Z,55.84
2022-11-24T16:37:50.247Z,55.17
2022-11-24T16:40:16.573Z,56.06
2022-11-24T16:42:42.905Z,55.51
2022-11-24T16:45:09.269Z,53.92
2022-11-24T16:47:35.662Z,54.28
2022-11-24T16:50:02.017Z,55.74
2022-11-24T16:52:28.410Z,55.81
2022-11-24T16:54:54.800Z,55.74
2022-11-24T16:57:21.156Z,55.69
2022-11-24T16:59:47.511Z,55.91
2022-11-24T17:02:13.896Z,55.92
2022-11-24T17:04:40.367Z,56.29
2022-11-24T17:07:06.734Z,55.73
2022-11-24T17:09:37.397Z,55.87
2022-11-24T17:12:06.576Z,55.64
2022-11-24T17:14:33.294Z,55.78
2022-11-24T17:16:59.831Z,55.96
2022-11-24T17:19:29.068Z,56.25
2022-11-24T17:21:55.392Z,56.14
2022-11-24T17:24:21.775Z,55.69
2022-11-24T17:26:49.212Z,56.78
2022-11-24T17:29:15.744Z,56.31
2022-11-24T17:31:42.228Z,56.18
2022-11-24T17:34:08.689Z,56.79
2022-11-24T17:36:35.038Z,57.28
2022-11-24T17:39:01.400Z,56.45
2022-11-24T17:41:27.739Z,55.58
2022-11-24T17:43:54.115Z,54.64
2022-11-24T17:46:20.505Z,54.12
2022-11-24T17:48:46.914Z,53.66
2022-11-24T17:51:13.295Z,54.04
2022-11-24T17:53:39.664Z,53.47
2022-11-24T17:56:06.048Z,53.59
2022-11-24T17:58:32.423Z,55.30
2022-11-24T18:00:58.864Z,54.72
2022-11-24T18:03:25.255Z,56.00
2022-11-24T18:05:51.591Z,54.18
2022-11-24T18:08:17.921Z,55.52
2022-11-24T18:10:44.251Z,55.34
2022-11-24T18:13:22.355Z,55.87
2022-11-24T18:15:56.918Z,56.34
2022-11-24T18:18:23.303Z,56.33
2022-11-24T18:20:49.672Z,56.41
2022-11-24T18:23:16.033Z,56.33
2022-11-24T18:25:42.364Z,56.08
2022-11-24T18:28:08.700Z,56.18
2022-11-24T18:30:35.028Z,56.17
2022-11-24T18:33:01.354Z,56.05
2022-11-24T18:35:27.711Z,56.10
2022-11-24T18:37:54.052Z,55.60
2022-11-24T18:40:20.456Z,55.12
2022-11-24T18:42:46.843Z,56.21
2022-11-24T18:45:13.227Z,57.06
2022-11-24T18:47:39.598Z,56.98
2022-11-24T18:50:06.000Z,56.46
2022-11-24T18:52:32.334Z,57.07
2022-11-24T18:54:58.701Z,56.75
2022-11-24T18:57:25.038Z,55.19
2022-11-24T18:59:51.414Z,55.38
2022-11-24T19:02:17.794Z,54.59
2022-11-24T19:04:44.354Z,54.85
2022-11-24T19:07:11.018Z,55.38
2022-11-24T19:09:37.464Z,54.86
2022-11-24T19:12:04.279Z,55.23
2022-11-24T19:14:30.873Z,54.98
2022-11-24T19:16:57.394Z,54.66
2022-11-24T19:19:23.920Z,53.76
2022-11-24T19:21:50.451Z,52.67
2022-11-24T19:24:17.128Z,52.15
2022-11-24T19:26:43.517Z,51.53
2022-11-24T19:29:10.038Z,51.67
2022-11-24T19:31:36.603Z,51.57
2022-11-24T19:34:03.259Z,51.63
2022-11-24T19:36:29.757Z,50.82
2022-11-24T19:38:56.129Z,51.56
2022-11-24T19:41:22.524Z,50.33
2022-11-24T19:43:48.872Z,51.24
2022-11-24T19:46:15.291Z,51.08
2022-11-24T19:48:41.755Z,51.31
2022-11-24T19:51:08.098Z,49.95
2022-11-24T19:53:34.480Z,50.77
2022-11-24T19:56:00.807Z,50.85
2022-11-24T19:58:27.165Z,51.16
2022-11-24T20:00:53.542Z,51.46
2022-11-24T20:03:19.969Z,51.51
2022-11-24T20:05:46.336Z,51.80
2022-11-24T20:08:12.707Z,51.55
2022-11-24T20:10:39.073Z,51.11
2022-11-24T20:13:05.453Z,50.82
2022-11-24T20:15:31.986Z,51.52
2022-11-24T20:17:58.369Z,50.92
2022-11-24T20:20:24.702Z,51.12
2022-11-24T20:22:51.028Z,51.64
2022-11-24T20:25:17.408Z,51.16
2022-11-24T20:27:43.745Z,51.57
2022-11-24T20:30:10.085Z,50.57
2022-11-24T20:32:36.444Z,51.04
2022-11-24T20:35:02.824Z,51.17
2022-11-24T20:37:29.139Z,50.37
2022-11-24T20:39:55.532Z,50.38
2022-11-24T20:42:21.891Z,50.79
2022-11-24T20:44:48.268Z,49.81
2022-11-24T20:47:14.603Z,49.46
2022-11-24T20:49:40.965Z,50.33
2022-11-24T20:52:07.305Z,50.72
2022-11-24T20:54:33.861Z,49.15
2022-11-24T20:57:00.305Z,49.55
2022-11-24T20:59:26.625Z,49.04
2022-11-24T21:01:53.038Z,49.56
2022-11-24T21:04:19.439Z,49.35
2022-11-24T21:06:45.767Z,49.76
2022-11-24T21:09:12.142Z,50.48
2022-11-24T21:11:38.527Z,50.71
2022-11-24T21:14:04.912Z,50.91
2022-11-24T21:16:31.289Z,50.85
2022-11-24T21:18:57.627Z,49.33
2022-11-24T21:21:23.992Z,49.52
2022-11-24T21:23:50.329Z,49.60
2022-11-24T21:26:17.268Z,50.58
2022-11-24T21:28:43.927Z,51.32
2022-11-24T21:31:10.420Z,51.08
2022-11-24T21:33:36.824Z,51.47
2022-11-24T21:36:03.222Z,50.04
2022-11-24T21:38:29.574Z,49.56
2022-11-24T21:40:55.943Z,50.82
2022-11-24T21:43:22.317Z,50.20
2022-11-24T21:45:48.706Z,50.29
2022-11-24T21:48:15.106Z,52.29
2022-11-24T21:50:41.502Z,51.44
2022-11-24T21:53:07.839Z,52.97
2022-11-24T21:55:34.226Z,53.53
2022-11-24T21:58:00.599Z,53.06
2022-11-24T22:00:26.944Z,54.04
2022-11-24T22:02:53.278Z,53.47
2022-11-24T22:05:19.594Z,54.39
2022-11-24T22:07:45.959Z,54.97
2022-11-24T22:10:12.348Z,53.25
2022-11-24T22:12:38.730Z,54.49
2022-11-24T22:15:05.062Z,54.00
2022-11-24T22:17:31.423Z,54.20
2022-11-24T22:19:57.747Z,54.36
2022-11-24T22:22:24.074Z,54.42
2022-11-24T22:24:50.465Z,54.43
2022-11-24T22:27:16.845Z,55.38
2022-11-24T22:29:43.183Z,54.70
2022-11-24T22:32:09.521Z,54.83
2022-11-24T22:34:36.148Z,54.97
2022-11-24T22:37:02.638Z,55.05
2022-11-24T22:39:29.014Z,55.16
2022-11-24T22:41:55.359Z,55.18
2022-11-24T22:44:21.677Z,55.11
2022-11-24T22:46:48.005Z,54.79
2022-11-24T22:49:14.380Z,55.16
2022-11-24T22:51:40.756Z,55.37
2022-11-24T22:54:07.134Z,54.87
2022-11-24T22:56:33.526Z,55.43
2022-11-24T22:58:59.929Z,55.25
2022-11-24T23:01:26.305Z,55.25
2022-11-24T23:03:52.788Z,55.92
2022-11-24T23:06:19.164Z,55.34
2022-11-24T23:08:45.515Z,55.31
2022-11-24T23:11:11.898Z,54.73
2022-11-24T23:13:38.280Z,55.00
2022-11-24T23:16:04.706Z,55.76
2022-11-24T23:18:31.121Z,56.06
2022-11-24T23:20:57.464Z,55.57
2022-11-24T23:23:23.803Z,55.25
2022-11-24T23:25:50.173Z,54.94
2022-11-24T23:28:16.561Z,55.68
2022-11-24T23:30:42.895Z,55.61
2022-11-24T23:33:09.698Z,54.02
2022-11-24T23:35:36.027Z,53.94
2022-11-24T23:38:09.546Z,52.70
2022-11-24T23:40:35.876Z,53.62
2022-11-24T23:43:02.198Z,53.29
2022-11-24T23:45:28.647Z,51.54
2022-11-24T23:47:55.013Z,51.64
2022-11-24T23:50:21.323Z,51.01
2022-11-24T23:52:47.691Z,51.20
2022-11-24T23:55:14.039Z,51.03
2022-11-24T23:57:40.374Z,51.32
